createdAt,value
2018-08-19T00:00:45.542Z,18.57
2018-08-19T00:01:45.995Z,18.70
2018-08-19T00:02:46.469Z,18.80
2018-08-19T00:03:46.949Z,18.91
2018-08-19T00:04:47.415Z,19.01
2018-08-19T00:05:47.889Z,19.10
2018-08-19T00:06:48.363Z,19.16
2018-08-19T00:07:48.840Z,19.17
2018-08-19T00:08:49.311Z,19.19
2018-08-19T00:09:49.787Z,19.18
2018-08-19T00:10:50.260Z,19.16
2018-08-19T00:11:50.736Z,19.13
2018-08-19T00:12:51.212Z,19.09
2018-08-19T00:13:51.686Z,19.02
2018-08-19T00:14:52.160Z,18.96
2018-08-19T00:15:52.635Z,18.89
2018-08-19T00:16:53.114Z,18.81
2018-08-19T00:17:53.584Z,18.72
2018-08-19T00:18:54.060Z,18.64
2018-08-19T00:19:54.535Z,18.56
2018-08-19T00:20:55.010Z,18.45
2018-08-19T00:21:55.488Z,18.35
2018-08-19T00:22:55.961Z,18.26
2018-08-19T00:23:56.436Z,18.15
2018-08-19T00:24:56.909Z,18.04
2018-08-19T00:25:57.383Z,17.95
2018-08-19T00:26:57.858Z,17.84
2018-08-19T00:27:58.335Z,17.74
2018-08-19T00:28:58.810Z,17.64
2018-08-19T00:29:59.280Z,17.55
2018-08-19T00:30:59.755Z,17.45
2018-08-19T00:32:00.228Z,17.37
2018-08-19T00:33:00.703Z,17.28
2018-08-19T00:34:01.176Z,17.20
2018-08-19T00:35:01.652Z,17.12
2018-08-19T00:36:02.123Z,17.03
2018-08-19T00:37:02.597Z,16.95
2018-08-19T00:38:03.069Z,16.88
2018-08-19T00:39:03.541Z,16.81
2018-08-19T00:40:04.015Z,16.73
2018-08-19T00:41:04.490Z,16.66
2018-08-19T00:42:04.960Z,16.59
2018-08-19T00:43:05.434Z,16.52
2018-08-19T00:44:05.907Z,16.45
2018-08-19T00:45:06.383Z,16.38
2018-08-19T00:46:06.850Z,16.32
2018-08-19T00:47:07.325Z,16.25
2018-08-19T00:48:07.793Z,16.19
2018-08-19T00:49:08.267Z,16.13
2018-08-19T00:50:08.738Z,16.08
2018-08-19T00:51:09.412Z,16.03
2018-08-19T00:52:09.681Z,15.98
2018-08-19T00:53:10.155Z,15.94
2018-08-19T00:54:10.624Z,15.89
2018-08-19T00:55:11.119Z,15.86
2018-08-19T00:56:11.569Z,15.84
2018-08-19T00:57:12.040Z,15.85
2018-08-19T00:58:12.511Z,15.87
2018-08-19T00:59:12.980Z,15.92
2018-08-19T01:00:13.455Z,15.98
2018-08-19T01:01:13.925Z,16.05
2018-08-19T01:02:14.393Z,16.15
2018-08-19T01:03:14.865Z,16.26
2018-08-19T01:04:15.337Z,16.37
2018-08-19T01:05:15.807Z,16.47
2018-08-19T01:06:16.277Z,16.61
2018-08-19T01:07:16.752Z,16.75
2018-08-19T01:08:17.224Z,16.90
2018-08-19T01:09:17.695Z,17.05
2018-08-19T01:10:18.166Z,17.20
2018-08-19T01:11:18.639Z,17.34
2018-08-19T01:12:19.108Z,17.47
2018-08-19T01:13:19.579Z,17.65
2018-08-19T01:14:20.053Z,17.78
2018-08-19T01:15:20.525Z,17.92
2018-08-19T01:16:21.002Z,18.06
2018-08-19T01:17:21.472Z,18.19
2018-08-19T01:18:21.944Z,18.31
2018-08-19T01:19:22.415Z,18.43
2018-08-19T01:20:22.895Z,18.53
2018-08-19T01:21:23.364Z,18.63
2018-08-19T01:22:23.838Z,18.72
2018-08-19T01:23:24.311Z,18.79
2018-08-19T01:24:24.786Z,18.85
2018-08-19T01:25:25.260Z,18.86
2018-08-19T01:26:25.733Z,18.87
2018-08-19T01:27:26.208Z,18.87
2018-08-19T01:28:26.684Z,18.85
2018-08-19T01:29:27.160Z,18.81
2018-08-19T01:30:27.836Z,18.76
2018-08-19T01:31:28.108Z,18.71
2018-08-19T01:32:28.584Z,18.64
2018-08-19T01:33:29.058Z,18.57
2018-08-19T01:34:29.545Z,18.49
2018-08-19T01:35:30.008Z,18.39
2018-08-19T01:36:30.482Z,18.30
2018-08-19T01:37:30.958Z,18.20
2018-08-19T01:38:31.434Z,18.10
2018-08-19T01:39:31.908Z,17.99
2018-08-19T01:40:32.381Z,17.88
2018-08-19T01:41:32.859Z,17.77
2018-08-19T01:42:33.329Z,17.65
2018-08-19T01:43:33.805Z,17.54
2018-08-19T01:44:34.283Z,17.42
2018-08-19T01:45:34.754Z,17.31
2018-08-19T01:46:35.227Z,17.21
2018-08-19T01:47:35.702Z,17.11
2018-08-19T01:48:36.178Z,17.02
2018-08-19T01:49:36.648Z,16.93
2018-08-19T01:50:37.124Z,16.83
2018-08-19T01:51:37.596Z,16.74
2018-08-19T01:52:38.070Z,16.65
2018-08-19T01:53:38.543Z,16.57
2018-08-19T01:54:39.015Z,16.48
2018-08-19T01:55:39.489Z,16.39
2018-08-19T01:56:39.961Z,16.32
2018-08-19T01:57:40.437Z,16.23
2018-08-19T01:58:40.906Z,16.16
2018-08-19T01:59:41.379Z,16.09
2018-08-19T02:00:41.852Z,16.03
2018-08-19T02:01:42.323Z,15.96
2018-08-19T02:02:42.795Z,15.89
2018-08-19T02:03:43.473Z,15.84
2018-08-19T02:04:43.737Z,15.80
2018-08-19T02:05:44.210Z,15.74
2018-08-19T02:06:44.682Z,15.69
2018-08-19T02:07:45.187Z,15.64
2018-08-19T02:08:45.640Z,15.61
2018-08-19T02:09:46.102Z,15.60
2018-08-19T02:10:46.587Z,15.60
2018-08-19T02:11:47.039Z,15.63
2018-08-19T02:12:47.516Z,15.68
2018-08-19T02:13:47.981Z,15.75
2018-08-19T02:14:48.453Z,15.83
2018-08-19T02:15:48.922Z,15.93
2018-08-19T02:16:49.393Z,16.01
2018-08-19T02:17:49.865Z,16.10
2018-08-19T02:18:50.334Z,16.21
2018-08-19T02:19:50.810Z,16.35
2018-08-19T02:20:51.279Z,16.47
2018-08-19T02:21:51.753Z,16.63
2018-08-19T02:22:52.221Z,16.77
2018-08-19T02:23:52.692Z,16.92
2018-08-19T02:24:53.165Z,17.07
2018-08-19T02:25:53.637Z,17.21
2018-08-19T02:26:54.108Z,17.34
2018-08-19T02:27:54.580Z,17.46
2018-08-19T02:28:55.053Z,17.59
2018-08-19T02:29:55.526Z,17.72
2018-08-19T02:30:56.000Z,17.82
2018-08-19T02:31:56.471Z,17.95
2018-08-19T02:32:56.946Z,18.07
2018-08-19T02:33:57.416Z,18.16
2018-08-19T02:34:57.895Z,18.26
2018-08-19T02:35:58.363Z,18.35
2018-08-19T02:36:58.837Z,18.43
2018-08-19T02:37:59.311Z,18.50
2018-08-19T02:38:59.784Z,18.54
2018-08-19T02:40:00.258Z,18.56
2018-08-19T02:41:00.735Z,18.57
2018-08-19T02:42:01.213Z,18.56
2018-08-19T02:43:01.681Z,18.55
2018-08-19T02:44:02.158Z,18.49
2018-08-19T02:45:02.632Z,18.44
2018-08-19T02:46:03.111Z,18.37
2018-08-19T02:47:03.582Z,18.31
2018-08-19T02:48:04.056Z,18.24
2018-08-19T02:49:04.533Z,18.15
2018-08-19T02:50:05.008Z,18.05
2018-08-19T02:51:05.482Z,17.95
2018-08-19T02:52:05.956Z,17.85
2018-08-19T02:53:06.431Z,17.73
2018-08-19T02:54:06.905Z,17.62
2018-08-19T02:55:07.380Z,17.50
2018-08-19T02:56:07.855Z,17.38
2018-08-19T02:57:08.332Z,17.27
2018-08-19T02:58:08.803Z,17.14
2018-08-19T02:59:09.277Z,17.02
2018-08-19T03:00:09.750Z,16.90
2018-08-19T03:01:10.224Z,16.78
2018-08-19T03:02:10.697Z,16.67
2018-08-19T03:03:11.169Z,16.58
2018-08-19T03:04:11.648Z,16.47
2018-08-19T03:05:12.170Z,16.38
2018-08-19T03:06:12.591Z,16.28
2018-08-19T03:07:13.063Z,16.19
2018-08-19T03:08:13.539Z,16.10
2018-08-19T03:09:14.010Z,16.01
2018-08-19T03:10:14.483Z,15.91
2018-08-19T03:11:15.002Z,15.83
2018-08-19T03:12:15.425Z,15.75
2018-08-19T03:13:15.900Z,15.66
2018-08-19T03:14:16.371Z,15.58
2018-08-19T03:15:16.896Z,15.50
2018-08-19T03:16:17.314Z,15.43
2018-08-19T03:17:17.786Z,15.36
2018-08-19T03:18:18.259Z,15.30
2018-08-19T03:19:18.731Z,15.24
2018-08-19T03:20:19.202Z,15.19
2018-08-19T03:21:19.674Z,15.16
2018-08-19T03:22:20.142Z,15.15
2018-08-19T03:23:20.617Z,15.17
2018-08-19T03:24:21.085Z,15.21
2018-08-19T03:25:21.558Z,15.27
2018-08-19T03:26:22.028Z,15.34
2018-08-19T03:27:22.700Z,15.44
2018-08-19T03:28:22.969Z,15.51
2018-08-19T03:29:23.439Z,15.61
2018-08-19T03:30:23.923Z,15.72
2018-08-19T03:31:24.382Z,15.85
2018-08-19T03:32:24.853Z,15.99
2018-08-19T03:33:25.323Z,16.15
2018-08-19T03:34:25.796Z,16.30
2018-08-19T03:35:26.267Z,16.45
2018-08-19T03:36:26.740Z,16.59
2018-08-19T03:37:27.213Z,16.72
2018-08-19T03:38:27.683Z,16.87
2018-08-19T03:39:28.154Z,17.00
2018-08-19T03:40:28.628Z,17.13
2018-08-19T03:41:29.097Z,17.26
2018-08-19T03:42:29.571Z,17.39
2018-08-19T03:43:30.043Z,17.49
2018-08-19T03:44:30.514Z,17.61
2018-08-19T03:45:31.040Z,17.69
2018-08-19T03:46:31.462Z,17.79
2018-08-19T03:47:31.932Z,17.88
2018-08-19T03:48:32.409Z,17.96
2018-08-19T03:49:32.881Z,18.06
2018-08-19T03:50:33.358Z,18.14
2018-08-19T03:51:33.830Z,18.21
2018-08-19T03:52:34.303Z,18.24
2018-08-19T03:53:34.777Z,18.26
2018-08-19T03:54:35.253Z,18.26
2018-08-19T03:55:35.727Z,18.23
2018-08-19T03:56:36.207Z,18.21
2018-08-19T03:57:36.683Z,18.17
2018-08-19T03:58:37.153Z,18.12
2018-08-19T03:59:37.625Z,18.05
2018-08-19T04:00:38.101Z,17.97
2018-08-19T04:01:38.576Z,17.89
2018-08-19T04:02:39.050Z,17.80
2018-08-19T04:03:39.525Z,17.71
2018-08-19T04:04:40.036Z,17.62
2018-08-19T04:05:40.476Z,17.54
2018-08-19T04:06:40.951Z,17.43
2018-08-19T04:07:41.422Z,17.33
2018-08-19T04:08:41.895Z,17.23
2018-08-19T04:09:42.370Z,17.11
2018-08-19T04:10:42.845Z,17.00
2018-08-19T04:11:43.318Z,16.88
2018-08-19T04:12:43.830Z,16.76
2018-08-19T04:13:44.275Z,16.64
2018-08-19T04:14:44.740Z,16.53
2018-08-19T04:15:45.213Z,16.42
2018-08-19T04:16:45.686Z,16.32
2018-08-19T04:17:46.160Z,16.22
2018-08-19T04:18:46.633Z,16.13
2018-08-19T04:19:47.110Z,16.03
2018-08-19T04:20:47.579Z,15.95
2018-08-19T04:21:48.051Z,15.86
2018-08-19T04:22:48.523Z,15.77
2018-08-19T04:23:48.995Z,15.69
2018-08-19T04:24:49.468Z,15.61
2018-08-19T04:25:49.940Z,15.53
2018-08-19T04:26:50.412Z,15.45
2018-08-19T04:27:50.881Z,15.38
2018-08-19T04:28:51.355Z,15.31
2018-08-19T04:29:51.829Z,15.23
2018-08-19T04:30:52.299Z,15.17
2018-08-19T04:31:52.771Z,15.13
2018-08-19T04:32:53.241Z,15.08
2018-08-19T04:33:53.713Z,15.07
2018-08-19T04:34:54.184Z,15.08
2018-08-19T04:35:54.659Z,15.11
2018-08-19T04:36:55.125Z,15.16
2018-08-19T04:37:55.600Z,15.24
2018-08-19T04:38:56.069Z,15.33
2018-08-19T04:39:56.540Z,15.42
2018-08-19T04:40:57.009Z,15.52
2018-08-19T04:41:57.479Z,15.66
2018-08-19T04:42:57.953Z,15.81
2018-08-19T04:43:58.422Z,15.94
2018-08-19T04:44:58.892Z,16.09
2018-08-19T04:45:59.365Z,16.26
2018-08-19T04:46:59.836Z,16.42
2018-08-19T04:48:00.306Z,16.58
2018-08-19T04:49:00.783Z,16.75
2018-08-19T04:50:01.249Z,16.90
2018-08-19T04:51:01.725Z,17.06
2018-08-19T04:52:02.193Z,17.21
2018-08-19T04:53:02.665Z,17.33
2018-08-19T04:54:03.139Z,17.47
2018-08-19T04:55:03.612Z,17.63
2018-08-19T04:56:04.083Z,17.75
2018-08-19T04:57:04.555Z,17.86
2018-08-19T04:58:05.030Z,17.99
2018-08-19T04:59:05.504Z,18.13
2018-08-19T05:00:05.976Z,18.25
2018-08-19T05:01:06.450Z,18.38
2018-08-19T05:02:06.967Z,18.49
2018-08-19T05:03:07.401Z,18.57
2018-08-19T05:04:07.872Z,18.63
2018-08-19T05:05:08.349Z,18.67
2018-08-19T05:06:08.821Z,18.67
2018-08-19T05:07:09.300Z,18.67
2018-08-19T05:08:09.872Z,18.66
2018-08-19T05:09:10.245Z,18.62
2018-08-19T05:10:10.721Z,18.59
2018-08-19T05:11:11.196Z,18.55
2018-08-19T05:12:11.667Z,18.49
2018-08-19T05:13:12.144Z,18.43
2018-08-19T05:14:12.621Z,18.35
2018-08-19T05:15:13.094Z,18.27
2018-08-19T05:16:13.569Z,18.18
2018-08-19T05:17:14.048Z,18.09
2018-08-19T05:18:14.518Z,18.01
2018-08-19T05:19:14.992Z,17.91
2018-08-19T05:20:15.469Z,17.81
2018-08-19T05:21:15.943Z,17.72
2018-08-19T05:22:16.415Z,17.62
2018-08-19T05:23:16.890Z,17.52
2018-08-19T05:24:17.365Z,17.42
2018-08-19T05:25:17.839Z,17.33
2018-08-19T05:26:18.311Z,17.25
2018-08-19T05:27:18.787Z,17.16
2018-08-19T05:28:19.282Z,17.09
2018-08-19T05:29:19.733Z,17.01
2018-08-19T05:30:20.206Z,16.94
2018-08-19T05:31:20.685Z,16.86
2018-08-19T05:32:21.151Z,16.79
2018-08-19T05:33:21.625Z,16.72
2018-08-19T05:34:22.096Z,16.65
2018-08-19T05:35:22.572Z,16.59
2018-08-19T05:36:23.044Z,16.52
2018-08-19T05:37:23.518Z,16.46
2018-08-19T05:38:23.988Z,16.41
2018-08-19T05:39:24.472Z,16.36
2018-08-19T05:40:24.931Z,16.31
2018-08-19T05:41:25.404Z,16.26
2018-08-19T05:42:25.880Z,16.20
2018-08-19T05:43:26.347Z,16.16
2018-08-19T05:44:26.819Z,16.12
2018-08-19T05:45:27.290Z,16.07
2018-08-19T05:46:27.762Z,16.05
2018-08-19T05:47:28.237Z,16.02
2018-08-19T05:48:28.709Z,16.00
2018-08-19T05:49:29.176Z,16.00
2018-08-19T05:50:29.649Z,16.01
2018-08-19T05:51:30.119Z,16.04
2018-08-19T05:52:30.590Z,16.10
2018-08-19T05:53:31.060Z,16.18
2018-08-19T05:54:31.531Z,16.28
2018-08-19T05:55:32.050Z,16.40
2018-08-19T05:56:32.473Z,16.52
2018-08-19T05:57:33.147Z,16.65
2018-08-19T05:58:33.417Z,16.79
2018-08-19T05:59:33.888Z,16.92
2018-08-19T06:00:34.358Z,17.09
2018-08-19T06:01:34.829Z,17.26
2018-08-19T06:02:35.301Z,17.44
2018-08-19T06:03:35.773Z,17.62
2018-08-19T06:04:36.248Z,17.80
2018-08-19T06:05:36.722Z,17.98
2018-08-19T06:06:37.191Z,18.15
2018-08-19T06:07:37.689Z,18.32
2018-08-19T06:08:38.134Z,18.48
2018-08-19T06:09:38.607Z,18.63
2018-08-19T06:10:39.081Z,18.78
2018-08-19T06:11:39.557Z,18.92
2018-08-19T06:12:40.029Z,19.06
2018-08-19T06:13:40.501Z,19.21
2018-08-19T06:14:40.975Z,19.34
2018-08-19T06:15:41.454Z,19.50
2018-08-19T06:16:41.922Z,19.59
2018-08-19T06:17:42.397Z,19.66
2018-08-19T06:18:42.875Z,19.70
2018-08-19T06:19:43.351Z,19.75
2018-08-19T06:20:43.822Z,19.77
2018-08-19T06:21:44.298Z,19.77
2018-08-19T06:22:44.774Z,19.75
2018-08-19T06:23:45.248Z,19.72
2018-08-19T06:24:45.838Z,19.69
2018-08-19T06:25:46.199Z,19.66
2018-08-19T06:26:46.674Z,19.63
2018-08-19T06:27:47.157Z,19.59
2018-08-19T06:28:47.625Z,19.54
2018-08-19T06:29:48.104Z,19.50
2018-08-19T06:30:48.576Z,19.45
2018-08-19T06:31:49.052Z,19.40
2018-08-19T06:32:49.527Z,19.34
2018-08-19T06:33:50.004Z,19.27
2018-08-19T06:34:50.673Z,19.21
2018-08-19T06:35:50.953Z,19.14
2018-08-19T06:36:51.427Z,19.08
2018-08-19T06:37:51.902Z,19.02
2018-08-19T06:38:52.589Z,18.96
2018-08-19T06:39:52.854Z,18.91
2018-08-19T06:40:53.329Z,18.86
2018-08-19T06:41:53.801Z,18.82
2018-08-19T06:42:54.281Z,18.78
2018-08-19T06:43:54.752Z,18.73
2018-08-19T06:44:55.227Z,18.69
2018-08-19T06:45:55.701Z,18.65
2018-08-19T06:46:56.176Z,18.62
2018-08-19T06:47:56.652Z,18.58
2018-08-19T06:48:57.127Z,18.55
2018-08-19T06:49:57.598Z,18.52
2018-08-19T06:50:58.073Z,18.48
2018-08-19T06:51:58.546Z,18.46
2018-08-19T06:52:59.023Z,18.42
2018-08-19T06:53:59.493Z,18.39
2018-08-19T06:54:59.969Z,18.38
2018-08-19T06:56:00.442Z,18.36
2018-08-19T06:57:00.917Z,18.33
2018-08-19T06:58:01.389Z,18.32
2018-08-19T06:59:01.862Z,18.31
2018-08-19T07:00:02.336Z,18.30
2018-08-19T07:01:02.809Z,18.29
2018-08-19T07:02:03.282Z,18.29
2018-08-19T07:03:03.758Z,18.30
2018-08-19T07:04:04.277Z,18.30
2018-08-19T07:05:04.700Z,18.31
2018-08-19T07:06:05.176Z,18.33
2018-08-19T07:07:05.655Z,18.35
2018-08-19T07:08:06.125Z,18.36
2018-08-19T07:09:06.595Z,18.38
2018-08-19T07:10:07.070Z,18.40
2018-08-19T07:11:07.543Z,18.42
2018-08-19T07:12:08.017Z,18.45
2018-08-19T07:13:08.488Z,18.48
2018-08-19T07:14:08.963Z,18.53
2018-08-19T07:15:09.434Z,18.56
2018-08-19T07:16:10.111Z,18.61
2018-08-19T07:17:10.382Z,18.66
2018-08-19T07:18:10.858Z,18.71
2018-08-19T07:19:11.331Z,18.76
2018-08-19T07:20:11.808Z,18.83
2018-08-19T07:21:12.304Z,18.89
2018-08-19T07:22:12.771Z,18.96
2018-08-19T07:23:13.229Z,19.03
2018-08-19T07:24:13.701Z,19.11
2018-08-19T07:25:14.178Z,19.20
2018-08-19T07:26:14.652Z,19.29
2018-08-19T07:27:15.127Z,19.40
2018-08-19T07:28:15.603Z,19.52
2018-08-19T07:29:16.078Z,19.66
2018-08-19T07:30:16.555Z,19.81
2018-08-19T07:31:17.031Z,19.99
2018-08-19T07:32:17.509Z,20.20
2018-08-19T07:33:17.983Z,20.41
2018-08-19T07:34:18.460Z,20.65
2018-08-19T07:35:18.939Z,20.96
2018-08-19T07:36:19.416Z,21.31
2018-08-19T07:37:19.894Z,21.66
2018-08-19T07:38:20.371Z,21.94
2018-08-19T07:39:20.849Z,22.04
2018-08-19T07:40:21.329Z,22.05
2018-08-19T07:41:21.807Z,22.12
2018-08-19T07:42:22.286Z,22.34
2018-08-19T07:43:22.766Z,22.63
2018-08-19T07:44:23.241Z,22.83
2018-08-19T07:46:24.197Z,22.85
2018-08-19T07:47:24.678Z,22.82
2018-08-19T07:48:25.157Z,22.75
2018-08-19T07:49:25.635Z,22.60
2018-08-19T07:50:26.113Z,22.43
2018-08-19T07:51:26.597Z,22.24
2018-08-19T07:52:27.274Z,22.05
2018-08-19T07:53:27.545Z,21.88
2018-08-19T07:54:28.024Z,21.74
2018-08-19T07:55:28.503Z,21.60
2018-08-19T07:56:28.984Z,21.46
2018-08-19T07:57:29.460Z,21.33
2018-08-19T07:58:29.937Z,21.20
2018-08-19T07:59:30.411Z,21.08
2018-08-19T08:00:30.887Z,20.97
2018-08-19T08:01:31.392Z,20.88
2018-08-19T08:02:31.851Z,20.80
2018-08-19T08:03:32.317Z,20.80
2018-08-19T08:04:32.795Z,20.96
2018-08-19T08:05:33.269Z,21.05
2018-08-19T08:06:33.746Z,21.11
2018-08-19T08:07:34.273Z,21.22
2018-08-19T08:08:34.703Z,21.49
2018-08-19T08:09:35.175Z,21.93
2018-08-19T08:10:35.653Z,22.41
2018-08-19T08:11:36.131Z,22.70
2018-08-19T08:12:36.660Z,22.77
2018-08-19T08:13:37.085Z,22.73
2018-08-19T08:14:37.565Z,22.63
2018-08-19T08:15:38.042Z,22.58
2018-08-19T08:16:38.517Z,22.51
2018-08-19T08:17:38.994Z,22.39
2018-08-19T08:18:39.471Z,22.24
2018-08-19T08:19:39.947Z,22.09
2018-08-19T08:20:40.424Z,21.95
2018-08-19T08:21:41.060Z,21.80
2018-08-19T08:22:41.380Z,21.68
2018-08-19T08:23:41.853Z,21.59
2018-08-19T08:24:42.332Z,21.73
2018-08-19T08:25:42.808Z,22.04
2018-08-19T08:26:43.285Z,22.33
2018-08-19T08:27:43.763Z,22.45
2018-08-19T08:28:44.239Z,22.49
2018-08-19T08:29:44.713Z,22.54
2018-08-19T08:30:45.199Z,22.76
2018-08-19T08:31:45.671Z,22.86
2018-08-19T08:32:46.199Z,22.84
2018-08-19T08:33:46.627Z,22.90
2018-08-19T08:34:47.102Z,23.15
2018-08-19T08:35:47.581Z,23.58
2018-08-19T08:36:48.058Z,24.02
2018-08-19T08:37:48.537Z,24.38
2018-08-19T08:38:49.015Z,24.47
2018-08-19T08:39:49.496Z,24.45
2018-08-19T08:40:49.972Z,24.43
2018-08-19T08:41:50.451Z,24.35
2018-08-19T08:42:50.931Z,24.36
2018-08-19T08:43:51.408Z,24.28
2018-08-19T08:44:51.888Z,24.12
2018-08-19T08:45:52.366Z,23.91
2018-08-19T08:46:52.847Z,23.70
2018-08-19T08:47:53.328Z,23.55
2018-08-19T08:48:53.801Z,23.50
2018-08-19T08:49:54.276Z,23.47
2018-08-19T08:50:54.756Z,23.57
2018-08-19T08:51:55.236Z,23.64
2018-08-19T08:52:55.715Z,23.62
2018-08-19T08:53:56.190Z,23.57
2018-08-19T08:54:56.669Z,23.52
2018-08-19T08:55:57.147Z,23.55
2018-08-19T08:56:57.626Z,23.59
2018-08-19T08:57:58.104Z,23.65
2018-08-19T08:58:58.579Z,23.70
2018-08-19T08:59:59.057Z,23.74
2018-08-19T09:00:59.535Z,23.77
2018-08-19T09:02:00.218Z,23.88
2018-08-19T09:03:00.491Z,24.10
2018-08-19T09:04:00.966Z,24.40
2018-08-19T09:05:01.443Z,24.68
2018-08-19T09:06:01.920Z,24.87
2018-08-19T09:07:02.399Z,24.95
2018-08-19T09:08:02.877Z,24.92
2018-08-19T09:09:03.353Z,24.83
2018-08-19T09:10:03.828Z,24.72
2018-08-19T09:11:04.305Z,24.57
2018-08-19T09:12:04.783Z,24.43
2018-08-19T09:13:05.259Z,24.27
2018-08-19T09:14:05.735Z,24.14
2018-08-19T09:15:06.211Z,23.99
2018-08-19T09:16:06.687Z,23.86
2018-08-19T09:17:07.164Z,23.75
2018-08-19T09:18:07.642Z,23.63
2018-08-19T09:19:08.117Z,23.52
2018-08-19T09:20:08.591Z,23.42
2018-08-19T09:21:09.069Z,23.31
2018-08-19T09:22:09.543Z,23.20
2018-08-19T09:23:10.088Z,23.09
2018-08-19T09:24:10.497Z,22.99
2018-08-19T09:25:10.975Z,22.91
2018-08-19T09:26:11.449Z,22.83
2018-08-19T09:27:11.925Z,22.76
2018-08-19T09:28:12.400Z,22.70
2018-08-19T09:29:12.884Z,22.63
2018-08-19T09:30:13.352Z,22.57
2018-08-19T09:31:13.827Z,22.52
2018-08-19T09:32:14.302Z,22.49
2018-08-19T09:33:14.781Z,22.46
2018-08-19T09:34:15.253Z,22.44
2018-08-19T09:35:15.732Z,22.41
2018-08-19T09:36:16.208Z,22.38
2018-08-19T09:37:16.680Z,22.35
2018-08-19T09:38:17.205Z,22.33
2018-08-19T09:39:17.635Z,22.32
2018-08-19T09:40:18.107Z,22.30
2018-08-19T09:41:18.584Z,22.30
2018-08-19T09:42:19.056Z,22.28
2018-08-19T09:43:19.532Z,22.27
2018-08-19T09:44:20.009Z,22.25
2018-08-19T09:45:20.484Z,22.23
2018-08-19T09:46:20.959Z,22.21
2018-08-19T09:47:21.433Z,22.19
2018-08-19T09:48:21.911Z,22.18
2018-08-19T09:49:22.386Z,22.16
2018-08-19T09:50:22.859Z,22.14
2018-08-19T09:51:23.335Z,22.13
2018-08-19T09:52:23.810Z,22.13
2018-08-19T09:53:24.286Z,22.13
2018-08-19T09:54:24.759Z,22.12
2018-08-19T09:55:25.233Z,22.13
2018-08-19T09:56:25.710Z,22.13
2018-08-19T09:57:26.192Z,22.14
2018-08-19T09:58:26.660Z,22.15
2018-08-19T09:59:27.134Z,22.17
2018-08-19T10:00:27.610Z,22.17
2018-08-19T10:01:28.136Z,22.19
2018-08-19T10:02:28.561Z,22.21
2018-08-19T10:03:29.035Z,22.23
2018-08-19T10:04:29.511Z,22.23
2018-08-19T10:05:29.989Z,22.23
2018-08-19T10:06:30.459Z,22.22
2018-08-19T10:07:30.995Z,22.21
2018-08-19T10:08:31.613Z,22.20
2018-08-19T10:09:31.887Z,22.21
2018-08-19T10:10:32.363Z,22.21
2018-08-19T10:11:32.836Z,22.22
2018-08-19T10:12:33.312Z,22.24
2018-08-19T10:13:33.812Z,22.25
2018-08-19T10:14:34.262Z,22.27
2018-08-19T10:15:34.737Z,22.27
2018-08-19T10:16:35.414Z,22.28
2018-08-19T10:17:35.710Z,22.28
2018-08-19T10:18:36.159Z,22.30
2018-08-19T10:19:36.636Z,22.31
2018-08-19T10:20:37.111Z,22.34
2018-08-19T10:21:37.588Z,22.37
2018-08-19T10:22:38.060Z,22.40
2018-08-19T10:23:38.537Z,22.40
2018-08-19T10:24:39.015Z,22.42
2018-08-19T10:25:39.486Z,22.43
2018-08-19T10:26:39.974Z,22.43
2018-08-19T10:27:40.436Z,22.43
2018-08-19T10:28:40.912Z,22.44
2018-08-19T10:29:41.388Z,22.46
2018-08-19T10:30:41.866Z,22.49
2018-08-19T10:31:42.339Z,22.52
2018-08-19T10:32:42.812Z,22.55
2018-08-19T10:33:43.288Z,22.59
2018-08-19T10:34:43.762Z,22.62
2018-08-19T10:35:44.238Z,22.64
2018-08-19T10:36:44.714Z,22.65
2018-08-19T10:37:45.190Z,22.66
2018-08-19T10:38:45.663Z,22.67
2018-08-19T10:39:46.139Z,22.67
2018-08-19T10:40:46.619Z,22.68
2018-08-19T10:41:47.108Z,22.70
2018-08-19T10:42:47.565Z,22.72
2018-08-19T10:43:48.045Z,22.76
2018-08-19T10:44:48.539Z,22.80
2018-08-19T10:45:48.991Z,22.85
2018-08-19T10:46:49.467Z,22.92
2018-08-19T10:47:49.945Z,22.99
2018-08-19T10:48:50.416Z,23.06
2018-08-19T10:49:50.894Z,23.12
2018-08-19T10:50:51.370Z,23.16
2018-08-19T10:51:51.845Z,23.20
2018-08-19T10:52:52.320Z,23.22
2018-08-19T10:53:52.795Z,23.24
2018-08-19T10:54:53.270Z,23.27
2018-08-19T10:55:53.752Z,23.30
2018-08-19T10:56:54.221Z,23.33
2018-08-19T10:57:54.698Z,23.38
2018-08-19T10:58:55.224Z,23.42
2018-08-19T10:59:55.716Z,23.46
2018-08-19T11:00:56.126Z,23.50
2018-08-19T11:01:56.602Z,23.54
2018-08-19T11:02:57.076Z,23.57
2018-08-19T11:03:57.553Z,23.59
2018-08-19T11:04:58.039Z,23.61
2018-08-19T11:05:58.504Z,23.61
2018-08-19T11:06:58.980Z,23.60
2018-08-19T11:07:59.456Z,23.58
2018-08-19T11:08:59.932Z,23.56
2018-08-19T11:10:00.407Z,23.56
2018-08-19T11:11:00.883Z,23.56
2018-08-19T11:12:01.359Z,23.57
2018-08-19T11:13:01.834Z,23.59
2018-08-19T11:14:02.313Z,23.61
2018-08-19T11:15:02.790Z,23.63
2018-08-19T11:16:03.264Z,23.65
2018-08-19T11:17:03.743Z,23.68
2018-08-19T11:18:04.216Z,23.69
2018-08-19T11:19:04.691Z,23.70
2018-08-19T11:20:05.171Z,23.70
2018-08-19T11:21:05.715Z,23.72
2018-08-19T11:22:06.121Z,23.73
2018-08-19T11:23:06.596Z,23.74
2018-08-19T11:24:07.073Z,23.76
2018-08-19T11:25:07.549Z,23.75
2018-08-19T11:26:08.025Z,23.76
2018-08-19T11:27:08.501Z,23.77
2018-08-19T11:28:08.977Z,23.78
2018-08-19T11:29:09.452Z,23.80
2018-08-19T11:30:09.929Z,23.80
2018-08-19T11:31:10.405Z,23.82
2018-08-19T11:32:10.881Z,23.83
2018-08-19T11:33:11.357Z,23.84
2018-08-19T11:34:11.834Z,23.85
2018-08-19T11:35:12.310Z,23.86
2018-08-19T11:36:12.785Z,23.87
2018-08-19T11:37:13.262Z,23.88
2018-08-19T11:38:13.740Z,23.89
2018-08-19T11:39:14.215Z,23.91
2018-08-19T11:40:14.692Z,23.92
2018-08-19T11:41:15.169Z,23.93
2018-08-19T11:42:15.650Z,23.94
2018-08-19T11:43:16.149Z,23.95
2018-08-19T11:44:16.598Z,23.95
2018-08-19T11:45:17.073Z,23.95
2018-08-19T11:46:17.551Z,23.96
2018-08-19T11:47:18.026Z,23.97
2018-08-19T11:48:18.503Z,23.98
2018-08-19T11:49:18.979Z,24.00
2018-08-19T11:50:19.456Z,24.02
2018-08-19T11:51:19.934Z,24.04
2018-08-19T11:52:20.409Z,24.05
2018-08-19T11:53:20.884Z,24.08
2018-08-19T11:54:21.363Z,24.11
2018-08-19T11:55:21.864Z,24.14
2018-08-19T11:56:22.321Z,24.15
2018-08-19T11:57:22.792Z,24.17
2018-08-19T11:58:23.270Z,24.18
2018-08-19T11:59:23.746Z,24.19
2018-08-19T12:00:24.221Z,24.21
2018-08-19T12:01:24.699Z,24.22
2018-08-19T12:02:25.177Z,24.25
2018-08-19T12:03:25.653Z,24.26
2018-08-19T12:04:26.181Z,24.28
2018-08-19T12:05:26.607Z,24.30
2018-08-19T12:06:27.087Z,24.31
2018-08-19T12:07:27.560Z,24.32
2018-08-19T12:08:28.038Z,24.34
2018-08-19T12:09:28.540Z,24.35
2018-08-19T12:10:28.995Z,24.38
2018-08-19T12:11:29.470Z,24.41
2018-08-19T12:12:29.947Z,24.43
2018-08-19T12:13:30.424Z,24.45
2018-08-19T12:14:30.900Z,24.48
2018-08-19T12:15:31.377Z,24.50
2018-08-19T12:16:31.856Z,24.52
2018-08-19T12:17:32.332Z,24.55
2018-08-19T12:18:32.809Z,24.56
2018-08-19T12:19:33.287Z,24.59
2018-08-19T12:20:33.764Z,24.61
2018-08-19T12:21:34.242Z,24.64
2018-08-19T12:22:34.720Z,24.67
2018-08-19T12:23:35.197Z,24.70
2018-08-19T12:24:35.675Z,24.71
2018-08-19T12:25:36.156Z,24.72
2018-08-19T12:26:36.629Z,24.73
2018-08-19T12:27:37.198Z,24.74
2018-08-19T12:28:37.585Z,24.74
2018-08-19T12:29:38.060Z,24.75
2018-08-19T12:30:38.539Z,24.76
2018-08-19T12:31:39.017Z,24.76
2018-08-19T12:32:39.494Z,24.76
2018-08-19T12:33:39.972Z,24.78
2018-08-19T12:34:40.451Z,24.78
2018-08-19T12:35:40.928Z,24.78
2018-08-19T12:36:41.406Z,24.79
2018-08-19T12:37:41.961Z,24.80
2018-08-19T12:38:42.361Z,24.80
2018-08-19T12:39:42.839Z,24.81
2018-08-19T12:40:43.317Z,24.82
2018-08-19T12:41:43.797Z,24.84
2018-08-19T12:42:44.272Z,24.85
2018-08-19T12:43:44.749Z,24.87
2018-08-19T12:44:45.290Z,24.87
2018-08-19T12:45:45.706Z,24.88
2018-08-19T12:46:46.183Z,24.89
2018-08-19T12:47:46.866Z,24.89
2018-08-19T12:48:47.141Z,24.90
2018-08-19T12:49:47.618Z,24.90
2018-08-19T12:50:48.096Z,24.90
2018-08-19T12:51:48.575Z,24.90
2018-08-19T12:52:49.056Z,24.90
2018-08-19T12:53:49.530Z,24.90
2018-08-19T12:54:50.011Z,24.90
2018-08-19T12:55:50.508Z,24.90
2018-08-19T12:56:50.970Z,24.89
2018-08-19T12:57:51.444Z,24.89
2018-08-19T12:58:51.923Z,24.90
2018-08-19T12:59:52.400Z,24.90